createdAt,value
2023-02-18T00:00:38.818Z,101462.00
2023-02-18T00:03:11.715Z,101456.00
2023-02-18T00:05:44.789Z,101459.00
2023-02-18T00:08:17.604Z,101465.00
2023-02-18T00:10:50.807Z,101463.00
2023-02-18T00:13:23.533Z,101457.00
2023-02-18T00:16:00.765Z,101458.00
2023-02-18T00:18:33.847Z,101466.00
2023-02-18T00:21:07.808Z,101460.00
2023-02-18T00:23:42.497Z,101457.00
2023-02-18T00:26:16.528Z,101457.00
2023-02-18T00:28:50.425Z,101464.00
2023-02-18T00:31:28.490Z,101457.00
2023-02-18T00:34:02.040Z,101458.00
2023-02-18T00:36:34.982Z,101459.00
2023-02-18T00:39:10.054Z,101465.00
2023-02-18T00:41:50.438Z,101460.00
2023-02-18T00:44:23.237Z,101461.00
2023-02-18T00:46:58.961Z,101462.00
2023-02-18T00:49:31.987Z,101463.00
2023-02-18T00:52:04.817Z,101464.00
2023-02-18T00:54:38.261Z,101464.00
2023-02-18T00:57:11.427Z,101467.00
2023-02-18T00:59:44.341Z,101471.00
2023-02-18T01:02:17.208Z,101471.00
2023-02-18T01:04:49.878Z,101462.00
2023-02-18T01:07:22.798Z,101468.00
2023-02-18T01:09:55.602Z,101469.00
2023-02-18T01:12:28.555Z,101462.00
2023-02-18T01:15:03.862Z,101464.00
2023-02-18T01:17:35.515Z,101465.00
2023-02-18T01:20:08.797Z,101462.00
2023-02-18T01:22:41.681Z,101450.00
2023-02-18T01:25:16.135Z,101454.00
2023-02-18T01:27:49.157Z,101448.00
2023-02-18T01:30:22.972Z,101452.00
2023-02-18T01:32:56.311Z,101440.00
2023-02-18T01:35:29.458Z,101448.00
2023-02-18T01:38:02.626Z,101452.00
2023-02-18T01:40:35.563Z,101447.00
2023-02-18T01:43:08.665Z,101454.00
2023-02-18T01:45:46.854Z,101449.00
2023-02-18T01:48:24.320Z,101442.00
2023-02-18T01:50:58.892Z,101448.00
2023-02-18T01:53:46.441Z,101449.00
2023-02-18T01:56:25.564Z,101445.00
2023-02-18T01:59:00.273Z,101446.00
2023-02-18T02:01:34.561Z,101443.00
2023-02-18T02:04:07.701Z,101447.00
2023-02-18T02:06:40.542Z,101444.00
2023-02-18T02:09:15.413Z,101448.00
2023-02-18T02:12:23.045Z,101447.00
2023-02-18T02:15:09.844Z,101443.00
2023-02-18T02:18:05.811Z,101443.00
2023-02-18T02:21:15.169Z,101437.00
2023-02-18T02:23:53.050Z,101430.00
2023-02-18T02:26:39.834Z,101431.00
2023-02-18T02:29:23.637Z,101431.00
2023-02-18T02:32:31.959Z,101436.00
2023-02-18T02:35:19.583Z,101435.00
2023-02-18T02:38:12.878Z,101432.00
2023-02-18T02:41:05.383Z,101436.00
2023-02-18T02:44:07.003Z,101437.00
2023-02-18T02:46:50.976Z,101438.00
2023-02-18T02:49:28.602Z,101439.00
2023-02-18T02:52:32.438Z,101440.00
2023-02-18T02:55:06.605Z,101438.00
2023-02-18T02:57:50.735Z,101438.00
2023-02-18T03:00:26.388Z,101430.00
2023-02-18T03:03:16.572Z,101430.00
2023-02-18T03:05:54.401Z,101437.00
2023-02-18T03:08:48.313Z,101423.00
2023-02-18T03:11:21.952Z,101434.00
2023-02-18T03:14:19.629Z,101426.00
2023-02-18T03:17:03.359Z,101432.00
2023-02-18T03:19:37.917Z,101432.00
2023-02-18T03:22:12.820Z,101431.00
2023-02-18T03:24:50.233Z,101426.00
2023-02-18T03:27:31.028Z,101431.00
2023-02-18T03:30:08.821Z,101427.00
2023-02-18T03:32:41.657Z,101426.00
2023-02-18T03:35:19.211Z,101424.00
2023-02-18T03:37:57.192Z,101421.00
2023-02-18T03:40:31.124Z,101413.00
2023-02-18T03:43:03.937Z,101420.00
2023-02-18T03:45:36.704Z,101414.00
2023-02-18T03:48:10.253Z,101412.00
2023-02-18T03:50:43.297Z,101415.00
2023-02-18T03:53:16.338Z,101415.00
2023-02-18T03:55:49.288Z,101424.00
2023-02-18T03:58:22.199Z,101416.00
2023-02-18T04:00:55.847Z,101423.00
2023-02-18T04:03:28.813Z,101418.00
2023-02-18T04:06:02.093Z,101418.00
2023-02-18T04:08:34.919Z,101421.00
2023-02-18T04:11:08.022Z,101428.00
2023-02-18T04:13:40.732Z,101418.00
2023-02-18T04:16:13.573Z,101426.00
2023-02-18T04:18:46.524Z,101429.00
2023-02-18T04:21:20.079Z,101425.00
2023-02-18T04:23:52.790Z,101428.00
2023-02-18T04:26:25.648Z,101425.00
2023-02-18T04:28:58.555Z,101439.00
2023-02-18T04:31:31.767Z,101437.00
2023-02-18T04:34:04.632Z,101428.00
2023-02-18T04:36:37.560Z,101430.00
2023-02-18T04:39:10.325Z,101427.00
2023-02-18T04:41:43.108Z,101426.00
2023-02-18T04:44:16.060Z,101419.00
2023-02-18T04:46:49.824Z,101423.00
2023-02-18T04:49:22.782Z,101434.00
2023-02-18T04:51:55.975Z,101439.00
2023-02-18T04:54:28.585Z,101429.00
2023-02-18T04:57:04.421Z,101442.00
2023-02-18T04:59:37.167Z,101446.00
2023-02-18T05:02:12.554Z,101448.00
2023-02-18T05:04:45.373Z,101451.00
2023-02-18T05:07:18.665Z,101458.00
2023-02-18T05:09:51.647Z,101447.00
2023-02-18T05:12:24.549Z,101447.00
2023-02-18T05:14:57.524Z,101456.00
2023-02-18T05:17:30.427Z,101454.00
2023-02-18T05:20:03.395Z,101451.00
2023-02-18T05:22:36.238Z,101457.00
2023-02-18T05:25:09.368Z,101444.00
2023-02-18T05:27:42.136Z,101443.00
2023-02-18T05:30:17.612Z,101453.00
2023-02-18T05:32:50.500Z,101439.00
2023-02-18T05:35:23.296Z,101448.00
2023-02-18T05:37:56.177Z,101450.00
2023-02-18T05:40:29.082Z,101456.00
2023-02-18T05:43:01.740Z,101464.00
2023-02-18T05:45:36.683Z,101463.00
2023-02-18T05:48:08.750Z,101464.00
2023-02-18T05:50:41.621Z,101472.00
2023-02-18T05:53:16.132Z,101468.00
2023-02-18T05:55:48.710Z,101467.00
2023-02-18T05:58:21.627Z,101474.00
2023-02-18T06:00:54.397Z,101469.00
2023-02-18T06:03:27.418Z,101474.00
2023-02-18T06:06:00.710Z,101461.00
2023-02-18T06:08:33.545Z,101468.00
2023-02-18T06:11:06.802Z,101475.00
2023-02-18T06:13:39.662Z,101481.00
2023-02-18T06:16:12.752Z,101484.00
2023-02-18T06:18:45.729Z,101483.00
2023-02-18T06:21:18.776Z,101483.00
2023-02-18T06:23:51.653Z,101492.00
2023-02-18T06:26:24.712Z,101495.00
2023-02-18T06:28:57.953Z,101493.00
2023-02-18T06:31:30.995Z,101493.00
2023-02-18T06:34:03.800Z,101491.00
2023-02-18T06:36:38.120Z,101490.00
2023-02-18T06:39:11.308Z,101505.00
2023-02-18T06:41:46.848Z,101495.00
2023-02-18T06:44:19.776Z,101501.00
2023-02-18T06:46:52.780Z,101508.00
2023-02-18T06:49:29.608Z,101508.00
2023-02-18T06:52:02.663Z,101510.00
2023-02-18T06:54:35.583Z,101514.00
2023-02-18T06:57:12.686Z,101517.00
2023-02-18T06:59:45.660Z,101519.00
2023-02-18T07:02:19.133Z,101520.00
2023-02-18T07:04:51.898Z,101530.00
2023-02-18T07:07:24.779Z,101530.00
2023-02-18T07:09:57.584Z,101551.00
2023-02-18T07:12:30.475Z,101547.00
2023-02-18T07:15:03.329Z,101556.00
2023-02-18T07:17:36.137Z,101555.00
2023-02-18T07:20:09.418Z,101563.00
2023-02-18T07:22:42.306Z,101562.00
2023-02-18T07:25:15.388Z,101557.00
2023-02-18T07:27:48.376Z,101558.00
2023-02-18T07:30:21.539Z,101569.00
2023-02-18T07:32:54.442Z,101577.00
2023-02-18T07:35:27.250Z,101579.00
2023-02-18T07:38:00.034Z,101578.00
2023-02-18T07:40:33.202Z,101572.00
2023-02-18T07:43:06.044Z,101562.00
2023-02-18T07:45:40.369Z,101568.00
2023-02-18T07:48:13.384Z,101557.00
2023-02-18T07:50:47.088Z,101571.00
2023-02-18T07:53:23.172Z,101572.00
2023-02-18T07:55:58.271Z,101571.00
2023-02-18T07:58:32.460Z,101574.00
2023-02-18T08:01:06.626Z,101575.00
2023-02-18T08:03:40.466Z,101583.00
2023-02-18T08:06:14.511Z,101582.00
2023-02-18T08:08:47.362Z,101580.00
2023-02-18T08:11:20.448Z,101589.00
2023-02-18T08:13:53.718Z,101586.00
2023-02-18T08:16:27.129Z,101587.00
2023-02-18T08:19:00.535Z,101592.00
2023-02-18T08:21:36.020Z,101598.00
2023-02-18T08:24:09.996Z,101592.00
2023-02-18T08:26:58.228Z,101608.00
2023-02-18T08:29:17.235Z,101612.00
2023-02-18T08:31:50.216Z,101605.00
2023-02-18T08:34:23.090Z,101608.00
2023-02-18T08:36:56.217Z,101620.00
2023-02-18T08:39:29.269Z,101620.00
2023-02-18T08:42:02.095Z,101617.00
2023-02-18T08:44:35.117Z,101627.00
2023-02-18T08:48:16.211Z,101634.00
2023-02-18T08:49:42.171Z,101643.00
2023-02-18T08:52:14.950Z,101648.00
2023-02-18T08:54:47.761Z,101654.00
2023-02-18T08:57:20.636Z,101647.00
2023-02-18T08:59:53.628Z,101643.00
2023-02-18T09:02:26.707Z,101657.00
2023-02-18T09:04:59.661Z,101657.00
2023-02-18T09:07:32.830Z,101662.00
2023-02-18T09:10:05.764Z,101670.00
2023-02-18T09:12:38.945Z,101659.00
2023-02-18T09:15:15.193Z,101659.00
2023-02-18T09:17:48.301Z,101655.00
2023-02-18T09:20:21.228Z,101662.00
2023-02-18T09:22:54.246Z,101658.00
2023-02-18T09:25:27.302Z,101659.00
2023-02-18T09:28:00.414Z,101667.00
2023-02-18T09:30:33.488Z,101667.00
2023-02-18T09:33:07.834Z,101670.00
2023-02-18T09:35:42.678Z,101674.00
2023-02-18T09:38:16.783Z,101674.00
2023-02-18T09:40:51.546Z,101670.00
2023-02-18T09:43:39.374Z,101674.00
2023-02-18T09:46:14.506Z,101674.00
2023-02-18T09:48:48.232Z,101678.00
2023-02-18T09:51:21.155Z,101671.00
2023-02-18T09:53:54.204Z,101680.00
2023-02-18T09:56:29.493Z,101672.00
2023-02-18T09:59:04.742Z,101670.00
2023-02-18T10:01:42.687Z,101669.00
2023-02-18T10:04:29.525Z,101673.00
2023-02-18T10:07:05.166Z,101673.00
2023-02-18T10:09:42.020Z,101673.00
2023-02-18T10:12:22.031Z,101667.00
2023-02-18T10:15:00.616Z,101663.00
2023-02-18T10:17:35.197Z,101671.00
2023-02-18T10:20:08.785Z,101665.00
2023-02-18T10:22:42.800Z,101658.00
2023-02-18T10:25:17.801Z,101659.00
2023-02-18T10:27:52.479Z,101670.00
2023-02-18T10:30:45.703Z,101661.00
2023-02-18T10:33:40.409Z,101669.00
2023-02-18T10:36:47.176Z,101665.00
2023-02-18T10:39:22.235Z,101667.00
2023-02-18T10:41:59.956Z,101661.00
2023-02-18T10:44:52.515Z,101667.00
2023-02-18T10:47:33.008Z,101672.00
2023-02-18T10:50:17.292Z,101670.00
2023-02-18T10:52:52.259Z,101668.00
2023-02-18T10:55:27.105Z,101669.00
2023-02-18T10:58:00.276Z,101670.00
2023-02-18T11:00:35.160Z,101674.00
2023-02-18T11:03:25.428Z,101675.00
2023-02-18T11:06:00.438Z,101675.00
2023-02-18T11:08:35.346Z,101669.00
2023-02-18T11:11:22.243Z,101676.00
2023-02-18T11:14:03.438Z,101669.00
2023-02-18T11:16:44.231Z,101668.00
2023-02-18T11:19:41.669Z,101678.00
2023-02-18T11:22:16.761Z,101682.00
2023-02-18T11:24:53.180Z,101682.00
2023-02-18T11:27:40.424Z,101687.00
2023-02-18T11:30:24.480Z,101689.00
2023-02-18T11:32:59.283Z,101689.00
2023-02-18T11:35:33.915Z,101685.00
2023-02-18T11:38:08.776Z,101697.00
2023-02-18T11:40:42.049Z,101696.00
2023-02-18T11:43:22.066Z,101697.00
2023-02-18T11:45:57.148Z,101696.00
2023-02-18T11:48:31.778Z,101696.00
2023-02-18T11:51:07.540Z,101696.00
2023-02-18T11:53:42.274Z,101703.00
2023-02-18T11:56:24.386Z,101697.00
2023-02-18T11:58:57.725Z,101704.00
2023-02-18T12:01:47.678Z,101707.00
2023-02-18T12:04:22.464Z,101701.00
2023-02-18T12:07:13.940Z,101697.00
2023-02-18T12:10:00.710Z,101701.00
2023-02-18T12:12:36.233Z,101704.00
2023-02-18T12:15:09.180Z,101700.00
2023-02-18T12:18:02.621Z,101704.00
2023-02-18T12:20:57.241Z,101703.00
2023-02-18T12:23:37.787Z,101712.00
2023-02-18T12:26:34.522Z,101699.00
2023-02-18T12:29:27.913Z,101706.00
2023-02-18T12:32:38.156Z,101704.00
2023-02-18T12:35:12.979Z,101702.00
2023-02-18T12:38:02.772Z,101700.00
2023-02-18T12:40:43.793Z,101693.00
2023-02-18T12:43:41.390Z,101696.00
2023-02-18T12:46:34.481Z,101691.00
2023-02-18T12:49:24.668Z,101691.00
2023-02-18T12:52:05.433Z,101696.00
2023-02-18T12:55:00.296Z,101698.00
2023-02-18T12:57:51.758Z,101702.00
2023-02-18T13:00:42.819Z,101687.00
2023-02-18T13:03:29.864Z,101688.00
2023-02-18T13:06:24.803Z,101682.00
2023-02-18T13:09:19.193Z,101675.00
2023-02-18T13:12:00.137Z,101682.00
2023-02-18T13:14:54.645Z,101687.00
2023-02-18T13:17:29.035Z,101669.00
2023-02-18T13:20:09.794Z,101676.00
2023-02-18T13:22:43.154Z,101684.00
2023-02-18T13:25:17.127Z,101680.00
2023-02-18T13:28:10.719Z,101682.00
2023-02-18T13:30:48.098Z,101678.00
2023-02-18T13:33:39.598Z,101681.00
2023-02-18T13:36:23.447Z,101678.00
2023-02-18T13:39:10.380Z,101683.00
2023-02-18T13:41:45.170Z,101687.00
2023-02-18T13:44:29.470Z,101682.00
2023-02-18T13:47:03.193Z,101683.00
2023-02-18T13:49:43.515Z,101676.00
2023-02-18T13:52:18.652Z,101675.00
2023-02-18T13:54:52.121Z,101682.00
2023-02-18T13:57:27.459Z,101675.00
2023-02-18T14:00:02.351Z,101679.00
2023-02-18T14:02:39.338Z,101690.00
2023-02-18T14:05:20.221Z,101681.00
2023-02-18T14:07:58.018Z,101684.00
2023-02-18T14:10:32.941Z,101675.00
2023-02-18T14:13:07.722Z,101681.00
2023-02-18T14:15:42.717Z,101678.00
2023-02-18T14:18:20.651Z,101676.00
2023-02-18T14:20:54.470Z,101672.00
2023-02-18T14:23:29.535Z,101674.00
2023-02-18T14:26:34.731Z,101680.00
2023-02-18T14:29:12.452Z,101681.00
2023-02-18T14:32:11.337Z,101680.00
2023-02-18T14:35:12.094Z,101674.00
2023-02-18T14:38:05.123Z,101683.00
2023-02-18T14:40:48.301Z,101679.00
2023-02-18T14:43:54.942Z,101679.00
2023-02-18T14:46:44.926Z,101673.00
2023-02-18T14:49:28.620Z,101674.00
2023-02-18T14:52:02.864Z,101666.00
2023-02-18T14:54:36.250Z,101669.00
2023-02-18T14:57:19.708Z,101668.00
2023-02-18T14:59:52.672Z,101674.00
2023-02-18T15:02:30.264Z,101672.00
2023-02-18T15:05:24.475Z,101667.00
2023-02-18T15:08:06.238Z,101666.00
2023-02-18T15:10:44.361Z,101660.00
2023-02-18T15:13:34.328Z,101669.00
2023-02-18T15:16:09.947Z,101667.00
2023-02-18T15:18:48.929Z,101670.00
2023-02-18T15:21:35.557Z,101665.00
2023-02-18T15:24:22.743Z,101657.00
2023-02-18T15:26:56.376Z,101656.00
2023-02-18T15:29:34.330Z,101652.00
2023-02-18T15:32:18.225Z,101657.00
2023-02-18T15:34:56.320Z,101654.00
2023-02-18T15:37:29.114Z,101658.00
2023-02-18T15:40:02.228Z,101650.00
2023-02-18T15:42:40.148Z,101655.00
2023-02-18T15:45:23.359Z,101661.00
2023-02-18T15:48:01.189Z,101659.00
2023-02-18T15:50:38.902Z,101657.00
2023-02-18T15:53:13.307Z,101662.00
2023-02-18T15:55:47.227Z,101662.00
2023-02-18T15:58:22.116Z,101669.00
2023-02-18T16:00:57.620Z,101666.00
2023-02-18T16:03:34.864Z,101662.00
2023-02-18T16:06:25.515Z,101652.00
2023-02-18T16:09:19.648Z,101670.00
2023-02-18T16:11:54.830Z,101662.00
2023-02-18T16:14:38.431Z,101671.00
2023-02-18T16:17:13.201Z,101668.00
2023-02-18T16:20:06.132Z,101667.00
2023-02-18T16:22:38.788Z,101669.00
2023-02-18T16:25:27.846Z,101669.00
2023-02-18T16:28:05.503Z,101667.00
2023-02-18T16:30:39.424Z,101677.00
2023-02-18T16:33:12.237Z,101677.00
2023-02-18T16:35:50.013Z,101675.00
2023-02-18T16:38:24.427Z,101679.00
2023-02-18T16:40:59.035Z,101682.00
2023-02-18T16:43:33.457Z,101688.00
2023-02-18T16:46:12.160Z,101677.00
2023-02-18T16:48:46.897Z,101681.00
2023-02-18T16:51:30.762Z,101687.00
2023-02-18T16:54:03.798Z,101679.00
2023-02-18T16:56:40.441Z,101683.00
2023-02-18T16:59:13.548Z,101683.00
2023-02-18T17:01:48.734Z,101683.00
2023-02-18T17:04:22.187Z,101691.00
2023-02-18T17:06:57.623Z,101698.00
2023-02-18T17:09:30.405Z,101701.00
2023-02-18T17:12:04.611Z,101704.00
2023-02-18T17:14:37.486Z,101712.00
2023-02-18T17:17:15.821Z,101716.00
2023-02-18T17:19:48.744Z,101711.00
2023-02-18T17:22:21.564Z,101721.00
2023-02-18T17:24:54.403Z,101719.00
2023-02-18T17:27:27.272Z,101717.00
2023-02-18T17:30:00.212Z,101719.00
2023-02-18T17:32:33.034Z,101724.00
2023-02-18T17:35:05.950Z,101726.00
2023-02-18T17:37:41.194Z,101732.00
2023-02-18T17:40:27.188Z,101719.00
2023-02-18T17:43:00.455Z,101728.00
2023-02-18T17:45:38.691Z,101726.00
2023-02-18T17:48:12.228Z,101733.00
2023-02-18T17:50:49.340Z,101744.00
2023-02-18T17:53:22.460Z,101744.00
2023-02-18T17:55:55.386Z,101749.00
2023-02-18T17:58:28.383Z,101752.00
2023-02-18T18:01:02.014Z,101756.00
2023-02-18T18:03:34.973Z,101765.00
2023-02-18T18:06:08.505Z,101764.00
2023-02-18T18:08:41.459Z,101768.00
2023-02-18T18:11:22.254Z,101772.00
2023-02-18T18:13:55.998Z,101779.00
2023-02-18T18:16:29.224Z,101779.00
2023-02-18T18:19:02.164Z,101774.00
2023-02-18T18:21:41.606Z,101780.00
2023-02-18T18:24:15.573Z,101784.00
2023-02-18T18:26:48.595Z,101794.00
2023-02-18T18:29:21.358Z,101789.00
2023-02-18T18:31:54.267Z,101785.00
2023-02-18T18:34:27.063Z,101791.00
2023-02-18T18:36:59.924Z,101798.00
2023-02-18T18:39:32.700Z,101804.00
2023-02-18T18:42:05.606Z,101805.00
2023-02-18T18:44:38.444Z,101812.00
2023-02-18T18:47:11.417Z,101817.00
2023-02-18T18:49:44.768Z,101815.00
2023-02-18T18:52:19.554Z,101824.00
2023-02-18T18:54:52.524Z,101828.00
2023-02-18T18:57:25.379Z,101828.00
2023-02-18T18:59:58.359Z,101837.00
2023-02-18T19:02:31.382Z,101842.00
2023-02-18T19:05:05.540Z,101841.00
2023-02-18T19:07:38.470Z,101841.00
2023-02-18T19:10:11.981Z,101839.00
2023-02-18T19:12:44.877Z,101847.00
2023-02-18T19:15:24.954Z,101849.00
2023-02-18T19:17:58.786Z,101858.00
2023-02-18T19:20:37.609Z,101869.00
2023-02-18T19:23:10.400Z,101870.00
2023-02-18T19:25:43.645Z,101865.00
2023-02-18T19:28:17.621Z,101874.00
2023-02-18T19:30:50.928Z,101872.00
2023-02-18T19:33:23.790Z,101875.00
2023-02-18T19:35:56.479Z,101873.00
2023-02-18T19:38:29.332Z,101879.00
2023-02-18T19:41:03.895Z,101879.00
2023-02-18T19:43:36.537Z,101883.00
2023-02-18T19:46:13.587Z,101888.00
2023-02-18T19:48:46.794Z,101880.00
2023-02-18T19:51:20.157Z,101875.00
2023-02-18T19:53:53.225Z,101880.00
2023-02-18T19:56:27.385Z,101884.00
2023-02-18T19:59:02.965Z,101888.00
2023-02-18T20:01:35.816Z,101895.00
2023-02-18T20:04:08.779Z,101878.00
2023-02-18T20:06:41.734Z,101881.00
2023-02-18T20:09:14.407Z,101889.00
2023-02-18T20:11:47.357Z,101894.00
2023-02-18T20:14:22.133Z,101895.00
2023-02-18T20:16:55.284Z,101897.00
2023-02-18T20:19:30.381Z,101896.00
2023-02-18T20:22:03.411Z,101902.00
2023-02-18T20:24:37.684Z,101903.00
2023-02-18T20:27:10.825Z,101907.00
2023-02-18T20:29:43.758Z,101904.00
2023-02-18T20:32:18.758Z,101907.00
2023-02-18T20:34:51.291Z,101912.00
2023-02-18T20:37:24.253Z,101916.00
2023-02-18T20:39:57.003Z,101919.00
2023-02-18T20:42:30.056Z,101919.00
2023-02-18T20:45:03.117Z,101928.00
2023-02-18T20:47:36.102Z,101930.00
2023-02-18T20:50:09.843Z,101930.00
2023-02-18T20:52:42.759Z,101928.00
2023-02-18T20:55:15.509Z,101934.00
2023-02-18T20:57:48.328Z,101943.00
2023-02-18T21:00:21.143Z,101942.00
2023-02-18T21:02:54.203Z,101950.00
2023-02-18T21:05:28.246Z,101951.00
2023-02-18T21:08:01.060Z,101949.00
2023-02-18T21:10:33.780Z,101955.00
2023-02-18T21:13:08.960Z,101956.00
2023-02-18T21:15:42.323Z,101964.00
2023-02-18T21:18:17.807Z,101955.00
2023-02-18T21:20:50.793Z,101964.00
2023-02-18T21:23:23.617Z,101960.00
2023-02-18T21:25:56.266Z,101963.00
2023-02-18T21:28:29.303Z,101965.00
2023-02-18T21:31:02.132Z,101963.00
2023-02-18T21:33:35.131Z,101963.00
2023-02-18T21:36:08.085Z,101961.00
2023-02-18T21:38:40.995Z,101961.00
2023-02-18T21:41:14.523Z,101965.00
2023-02-18T21:43:49.105Z,101966.00
2023-02-18T21:46:24.428Z,101960.00
2023-02-18T21:49:05.409Z,101973.00
2023-02-18T21:51:59.593Z,101971.00
2023-02-18T21:54:38.535Z,101974.00
2023-02-18T21:57:16.669Z,101971.00
2023-02-18T21:59:49.448Z,101973.00
2023-02-18T22:02:24.182Z,101975.00
2023-02-18T22:05:00.027Z,101980.00
2023-02-18T22:07:33.939Z,101976.00
2023-02-18T22:10:06.824Z,101967.00
2023-02-18T22:12:39.521Z,101980.00
2023-02-18T22:15:12.743Z,101979.00
2023-02-18T22:17:45.686Z,101980.00
2023-02-18T22:20:18.556Z,101976.00
2023-02-18T22:22:51.297Z,101971.00
2023-02-18T22:25:24.191Z,101963.00
2023-02-18T22:27:57.148Z,101973.00
2023-02-18T22:30:29.797Z,101969.00
2023-02-18T22:33:02.707Z,101976.00
2023-02-18T22:35:36.082Z,101977.00
2023-02-18T22:38:08.942Z,101981.00
2023-02-18T22:40:41.603Z,101973.00
2023-02-18T22:43:14.739Z,101974.00
2023-02-18T22:45:47.614Z,101980.00
2023-02-18T22:48:20.365Z,101973.00
2023-02-18T22:50:53.602Z,101972.00
2023-02-18T22:53:26.476Z,101976.00
2023-02-18T22:56:01.428Z,101971.00
2023-02-18T22:58:34.555Z,101966.00
2023-02-18T23:01:09.086Z,101965.00
2023-02-18T23:03:42.254Z,101970.00
2023-02-18T23:06:14.966Z,101967.00
2023-02-18T23:08:47.630Z,101968.00
2023-02-18T23:11:22.728Z,101968.00
2023-02-18T23:14:14.069Z,101966.00
2023-02-18T23:17:04.675Z,101959.00
2023-02-18T23:19:38.274Z,101968.00
2023-02-18T23:22:11.419Z,101967.00
2023-02-18T23:24:45.971Z,101968.00
2023-02-18T23:27:19.831Z,101960.00
2023-02-18T23:29:52.818Z,101964.00
2023-02-18T23:32:25.600Z,101966.00
2023-02-18T23:35:02.511Z,101961.00
2023-02-18T23:37:52.625Z,101952.00
2023-02-18T23:40:25.811Z,101956.00
2023-02-18T23:42:58.862Z,101958.00
2023-02-18T23:45:32.075Z,101956.00
2023-02-18T23:48:04.808Z,101952.00
2023-02-18T23:50:41.998Z,101963.00
2023-02-18T23:53:19.602Z,101955.00
2023-02-18T23:55:52.522Z,101949.00
2023-02-18T23:58:25.579Z,101942.00
